createdAt,value
2018-04-25T04:00:27.012Z,50.00
2018-04-25T04:02:53.227Z,50.00
2018-04-25T04:05:19.477Z,50.10
2018-04-25T04:07:45.701Z,50.10
2018-04-25T04:10:11.917Z,49.90
2018-04-25T04:12:38.140Z,49.50
2018-04-25T04:15:04.392Z,49.80
2018-04-25T04:17:30.816Z,50.40
2018-04-25T04:19:57.237Z,49.30
2018-04-25T04:22:24.220Z,49.30
2018-04-25T04:24:50.538Z,49.30
2018-04-25T04:27:16.736Z,49.20
2018-04-25T04:29:42.996Z,49.40
2018-04-25T04:32:10.011Z,50.10
2018-04-25T04:34:36.234Z,49.90
2018-04-25T04:37:02.453Z,50.00
2018-04-25T04:39:28.694Z,50.10
2018-04-25T04:41:54.964Z,50.10
2018-04-25T04:44:21.199Z,50.20
2018-04-25T04:46:47.431Z,50.00
2018-04-25T04:49:13.688Z,49.90
2018-04-25T04:51:39.928Z,50.00
2018-04-25T04:54:06.177Z,49.50
2018-04-25T04:56:32.448Z,49.40
2018-04-25T04:58:58.661Z,49.10
2018-04-25T05:01:24.899Z,49.10
2018-04-25T05:03:51.114Z,49.10
2018-04-25T05:06:17.667Z,49.20
2018-04-25T05:08:43.973Z,49.10
2018-04-25T05:11:10.330Z,49.10
2018-04-25T05:13:36.672Z,49.10
2018-04-25T05:16:02.902Z,49.00
2018-04-25T05:18:29.153Z,49.00
2018-04-25T05:20:55.380Z,49.10
2018-04-25T05:23:21.613Z,49.10
2018-04-25T05:25:48.577Z,49.10
2018-04-25T05:28:14.856Z,49.10
2018-04-25T05:30:41.100Z,49.00
2018-04-25T05:33:07.395Z,48.80
2018-04-25T05:35:33.631Z,49.10
2018-04-25T05:38:00.590Z,49.10
2018-04-25T05:40:26.856Z,49.20
2018-04-25T05:42:53.117Z,49.20
2018-04-25T05:45:19.879Z,49.10
2018-04-25T05:47:46.125Z,49.20
2018-04-25T05:50:12.339Z,49.20
2018-04-25T05:52:38.569Z,49.20
2018-04-25T05:55:04.832Z,49.20
2018-04-25T05:57:31.066Z,49.10
2018-04-25T05:59:57.304Z,49.10
2018-04-25T06:02:23.531Z,49.10
2018-04-25T06:04:49.760Z,49.00
2018-04-25T06:07:16.023Z,49.00
2018-04-25T06:09:42.991Z,49.00
2018-04-25T06:12:09.211Z,48.90
2018-04-25T06:14:35.448Z,49.00
2018-04-25T06:17:01.681Z,49.00
2018-04-25T06:19:27.947Z,49.00
2018-04-25T06:21:54.186Z,49.00
2018-04-25T06:24:21.176Z,49.00
2018-04-25T06:26:47.410Z,48.90
2018-04-25T06:29:13.639Z,48.90
2018-04-25T06:31:39.893Z,48.90
2018-04-25T06:34:06.109Z,48.90
2018-04-25T06:36:32.349Z,48.80
2018-04-25T06:38:58.596Z,48.90
2018-04-25T06:41:24.802Z,48.80
2018-04-25T06:43:51.041Z,48.90
2018-04-25T06:46:17.300Z,48.90
2018-04-25T06:48:43.705Z,48.90
2018-04-25T06:51:09.938Z,48.80
2018-04-25T06:53:36.175Z,49.30
2018-04-25T06:56:02.434Z,48.70
2018-04-25T06:58:28.664Z,49.30
2018-04-25T07:00:55.494Z,48.80
2018-04-25T07:03:21.721Z,48.80
2018-04-25T07:05:47.967Z,48.80
2018-04-25T07:08:14.248Z,48.80
2018-04-25T07:10:40.513Z,48.60
2018-04-25T07:13:06.722Z,48.70
2018-04-25T07:15:32.967Z,48.70
2018-04-25T07:17:59.184Z,48.70
2018-04-25T07:20:25.430Z,48.80
2018-04-25T07:22:51.664Z,48.80
2018-04-25T07:25:17.907Z,48.60
2018-04-25T07:27:44.143Z,48.70
2018-04-25T07:30:11.153Z,48.70
2018-04-25T07:32:37.410Z,48.60
2018-04-25T07:35:03.622Z,48.60
2018-04-25T07:37:29.857Z,48.60
2018-04-25T07:39:56.069Z,48.60
2018-04-25T07:42:22.300Z,48.60
2018-04-25T07:44:48.561Z,48.60
2018-04-25T07:47:14.777Z,48.50
2018-04-25T07:49:40.995Z,48.60
2018-04-25T07:52:07.257Z,48.60
2018-04-25T07:54:33.477Z,48.50
2018-04-25T07:56:59.729Z,48.60
2018-04-25T07:59:25.987Z,48.50
2018-04-25T08:01:52.221Z,48.50
2018-04-25T08:04:19.202Z,48.60
2018-04-25T08:06:46.200Z,49.20
2018-04-25T08:09:12.505Z,48.60
2018-04-25T08:11:38.745Z,48.60
2018-04-25T08:14:04.988Z,48.60
2018-04-25T08:16:31.239Z,48.60
2018-04-25T08:18:57.453Z,48.60
2018-04-25T08:21:23.691Z,48.70
2018-04-25T08:23:49.955Z,48.70
2018-04-25T08:26:16.208Z,48.60
2018-04-25T08:28:42.434Z,48.50
2018-04-25T08:31:08.656Z,48.60
2018-04-25T08:33:34.908Z,48.60
2018-04-25T08:36:01.160Z,48.50
2018-04-25T08:38:27.427Z,48.50
2018-04-25T08:40:53.660Z,48.50
2018-04-25T08:43:20.668Z,48.60
2018-04-25T08:45:46.903Z,48.50
2018-04-25T08:48:13.116Z,48.60
2018-04-25T08:50:39.375Z,48.50
2018-04-25T08:53:05.616Z,48.60
2018-04-25T08:55:31.852Z,48.50
2018-04-25T08:57:58.088Z,48.50
2018-04-25T09:00:24.320Z,48.60
2018-04-25T09:02:50.590Z,48.50
2018-04-25T09:05:16.827Z,48.50
2018-04-25T09:07:43.677Z,48.50
2018-04-25T09:10:09.893Z,48.50
2018-04-25T09:12:36.109Z,48.50
2018-04-25T09:15:02.384Z,48.50
2018-04-25T09:17:28.614Z,48.50
2018-04-25T09:19:54.852Z,48.50
2018-04-25T09:22:21.092Z,48.50
2018-04-25T09:24:47.331Z,48.50
2018-04-25T09:27:13.581Z,49.10
2018-04-25T09:29:39.791Z,48.50
2018-04-25T09:32:06.013Z,48.50
2018-04-25T09:34:32.306Z,48.50
2018-04-25T09:36:58.474Z,48.50
2018-04-25T09:39:24.749Z,48.50
2018-04-25T09:41:51.003Z,48.50
2018-04-25T09:44:17.217Z,48.50
2018-04-25T09:46:43.464Z,48.50
2018-04-25T09:49:10.012Z,48.50
2018-04-25T09:51:36.393Z,48.50
2018-04-25T09:54:03.387Z,48.50
2018-04-25T09:56:29.624Z,48.50
2018-04-25T09:58:55.848Z,48.50
2018-04-25T10:01:22.057Z,48.50
2018-04-25T10:03:48.309Z,48.50
2018-04-25T10:06:14.521Z,48.50
2018-04-25T10:08:40.764Z,48.50
2018-04-25T10:11:06.973Z,48.50
2018-04-25T10:13:33.204Z,48.50
2018-04-25T10:15:59.423Z,48.50
2018-04-25T10:18:25.659Z,48.50
2018-04-25T10:20:51.876Z,48.50
2018-04-25T10:23:18.120Z,48.40
2018-04-25T10:25:44.586Z,48.40
2018-04-25T10:28:10.767Z,48.40
2018-04-25T10:30:36.974Z,48.40
2018-04-25T10:33:04.005Z,48.40
2018-04-25T10:35:30.232Z,48.40
2018-04-25T10:37:56.454Z,48.40
2018-04-25T10:40:22.750Z,48.40
2018-04-25T10:42:48.959Z,48.40
2018-04-25T10:45:15.247Z,48.40
2018-04-25T10:47:41.497Z,48.30
2018-04-25T10:50:07.736Z,48.30
2018-04-25T10:52:33.977Z,48.40
2018-04-25T10:55:00.244Z,48.30
2018-04-25T10:57:26.457Z,48.30
2018-04-25T10:59:52.676Z,48.30
2018-04-25T11:02:18.965Z,48.30
2018-04-25T11:04:45.177Z,48.90
2018-04-25T11:07:11.423Z,48.30
2018-04-25T11:09:37.768Z,48.30
2018-04-25T11:12:03.981Z,48.30
2018-04-25T11:14:31.023Z,48.30
2018-04-25T11:16:57.248Z,48.30
2018-04-25T11:19:23.469Z,48.30
2018-04-25T11:21:49.703Z,48.30
2018-04-25T11:24:15.989Z,48.30
2018-04-25T11:26:42.339Z,48.30
2018-04-25T11:29:08.497Z,48.30
2018-04-25T11:31:34.708Z,48.30
2018-04-25T11:34:00.944Z,48.30
2018-04-25T11:36:27.177Z,48.30
2018-04-25T11:38:53.417Z,48.90
2018-04-25T11:41:19.649Z,48.20
2018-04-25T11:43:45.880Z,48.30
2018-04-25T11:46:12.119Z,48.30
2018-04-25T11:48:38.333Z,48.30
2018-04-25T11:51:04.604Z,48.20
2018-04-25T11:53:30.812Z,48.30
2018-04-25T11:55:57.052Z,48.20
2018-04-25T11:58:23.288Z,48.20
2018-04-25T12:00:49.690Z,48.10
2018-04-25T12:03:16.866Z,47.80
2018-04-25T12:05:43.098Z,47.80
2018-04-25T12:08:09.351Z,47.80
2018-04-25T12:10:36.315Z,48.30
2018-04-25T12:13:02.542Z,47.90
2018-04-25T12:15:28.829Z,47.80
2018-04-25T12:17:55.049Z,47.90
2018-04-25T12:20:21.334Z,48.10
2018-04-25T12:22:47.561Z,48.00
2018-04-25T12:25:13.801Z,48.10
2018-04-25T12:27:40.061Z,47.90
2018-04-25T12:30:06.278Z,47.90
2018-04-25T12:32:32.510Z,47.80
2018-04-25T12:34:58.929Z,47.90
2018-04-25T12:37:25.921Z,48.00
2018-04-25T12:39:52.242Z,47.80
2018-04-25T12:42:18.460Z,47.80
2018-04-25T12:44:44.717Z,47.70
2018-04-25T12:47:10.964Z,47.80
2018-04-25T12:49:37.210Z,47.70
2018-04-25T12:52:03.452Z,47.80
2018-04-25T12:54:29.680Z,47.70
2018-04-25T12:56:55.920Z,47.80
2018-04-25T12:59:22.883Z,47.60
2018-04-25T13:01:49.116Z,47.70
2018-04-25T13:04:15.409Z,47.90
2018-04-25T13:06:41.652Z,47.90
2018-04-25T13:09:07.890Z,47.80
2018-04-25T13:11:34.127Z,48.00
2018-04-25T13:14:01.097Z,48.00
2018-04-25T13:16:27.416Z,48.10
2018-04-25T13:18:53.637Z,48.20
2018-04-25T13:21:19.940Z,48.20
2018-04-25T13:23:46.112Z,48.30
2018-04-25T13:26:12.347Z,48.20
2018-04-25T13:28:38.637Z,48.20
2018-04-25T13:31:04.853Z,48.30
2018-04-25T13:33:31.080Z,48.30
2018-04-25T13:35:57.304Z,48.30
2018-04-25T13:38:23.540Z,48.30
2018-04-25T13:40:49.808Z,48.30
2018-04-25T13:43:16.789Z,48.40
2018-04-25T13:45:43.044Z,48.40
2018-04-25T13:48:09.276Z,48.30
2018-04-25T13:50:35.689Z,48.30
2018-04-25T13:53:01.964Z,48.30
2018-04-25T13:55:28.194Z,48.40
2018-04-25T13:57:54.441Z,48.20
2018-04-25T14:00:20.667Z,48.30
2018-04-25T14:02:46.915Z,48.20
2018-04-25T14:05:13.192Z,48.20
2018-04-25T14:07:39.786Z,48.20
2018-04-25T14:10:06.287Z,48.20
2018-04-25T14:12:32.505Z,48.20
2018-04-25T14:14:58.743Z,48.10
2018-04-25T14:17:25.780Z,48.10
2018-04-25T14:19:52.790Z,47.80
2018-04-25T14:22:19.012Z,48.10
2018-04-25T14:24:45.265Z,48.20
2018-04-25T14:27:11.536Z,48.20
2018-04-25T14:29:37.801Z,48.10
2018-04-25T14:32:04.018Z,48.20
2018-04-25T14:34:30.273Z,48.20
2018-04-25T14:36:56.542Z,48.20
2018-04-25T14:39:22.763Z,48.30
2018-04-25T14:41:49.040Z,48.30
2018-04-25T14:44:15.254Z,48.30
2018-04-25T14:46:41.484Z,48.30
2018-04-25T14:49:07.741Z,48.40
2018-04-25T14:51:33.958Z,48.40
2018-04-25T14:54:00.818Z,48.30
2018-04-25T14:56:27.032Z,48.30
2018-04-25T14:58:53.272Z,48.30
2018-04-25T15:01:19.507Z,48.30
2018-04-25T15:03:45.755Z,48.30
2018-04-25T15:06:12.047Z,48.20
2018-04-25T15:08:38.283Z,48.10
2018-04-25T15:11:04.520Z,48.00
2018-04-25T15:13:30.751Z,47.60
2018-04-25T15:15:56.996Z,47.20
2018-04-25T15:18:23.237Z,47.00
2018-04-25T15:20:49.460Z,46.90
2018-04-25T15:23:15.677Z,46.70
2018-04-25T15:25:41.897Z,46.60
2018-04-25T15:28:08.142Z,46.60
2018-04-25T15:30:34.405Z,46.90
2018-04-25T15:33:00.636Z,47.10
2018-04-25T15:35:26.848Z,47.00
2018-04-25T15:37:53.127Z,46.90
2018-04-25T15:40:19.304Z,47.10
2018-04-25T15:42:45.549Z,47.10
2018-04-25T15:45:11.773Z,47.20
2018-04-25T15:47:38.752Z,47.50
2018-04-25T15:50:04.997Z,47.30
2018-04-25T15:52:31.236Z,47.50
2018-04-25T15:54:57.502Z,47.60
2018-04-25T15:57:23.720Z,47.60
2018-04-25T15:59:49.959Z,47.70
2018-04-25T16:02:16.174Z,47.70
2018-04-25T16:04:42.408Z,47.70
2018-04-25T16:07:08.684Z,47.70
2018-04-25T16:09:34.924Z,47.70
2018-04-25T16:12:01.167Z,47.70
2018-04-25T16:14:27.398Z,47.80
2018-04-25T16:16:53.608Z,47.80
2018-04-25T16:19:19.873Z,47.80
2018-04-25T16:21:46.116Z,47.80
2018-04-25T16:24:12.336Z,47.90
2018-04-25T16:26:39.340Z,47.90
2018-04-25T16:29:05.562Z,47.90
2018-04-25T16:31:31.838Z,47.90
2018-04-25T16:33:58.073Z,48.00
2018-04-25T16:36:24.315Z,47.80
2018-04-25T16:38:50.787Z,47.80
2018-04-25T16:41:17.028Z,47.80
2018-04-25T16:43:43.285Z,47.80
2018-04-25T16:46:09.505Z,47.90
2018-04-25T16:48:35.733Z,47.90
2018-04-25T16:51:02.605Z,48.00
2018-04-25T16:53:28.826Z,48.00
2018-04-25T16:55:55.117Z,48.00
2018-04-25T16:58:21.329Z,48.30
2018-04-25T17:00:47.558Z,48.00
2018-04-25T17:03:14.531Z,48.10
2018-04-25T17:05:40.775Z,48.00
2018-04-25T17:08:07.104Z,48.30
2018-04-25T17:10:33.296Z,48.40
2018-04-25T17:13:00.120Z,47.90
2018-04-25T17:15:26.361Z,48.10
2018-04-25T17:17:52.588Z,48.20
2018-04-25T17:20:19.172Z,48.00
2018-04-25T17:22:45.413Z,48.00
2018-04-25T17:25:11.643Z,48.20
2018-04-25T17:27:37.863Z,48.30
2018-04-25T17:30:04.090Z,48.30
2018-04-25T17:32:30.338Z,48.40
2018-04-25T17:34:56.603Z,48.30
2018-04-25T17:37:22.852Z,48.50
2018-04-25T17:39:49.088Z,48.50
2018-04-25T17:42:15.356Z,48.40
2018-04-25T17:44:41.788Z,48.50
2018-04-25T17:47:08.013Z,48.40
2018-04-25T17:49:34.265Z,48.50
2018-04-25T17:52:00.485Z,48.40
2018-04-25T17:54:26.761Z,48.40
2018-04-25T17:56:53.025Z,48.50
2018-04-25T17:59:19.291Z,48.40
2018-04-25T18:01:45.525Z,48.40
2018-04-25T18:04:11.772Z,48.40
2018-04-25T18:06:38.341Z,48.30
2018-04-25T18:09:04.613Z,48.30
2018-04-25T18:11:30.967Z,48.30
2018-04-25T18:13:57.133Z,48.30
2018-04-25T18:16:23.367Z,47.70
2018-04-25T18:18:49.606Z,47.40
2018-04-25T18:21:15.924Z,46.70
2018-04-25T18:23:42.176Z,46.40
2018-04-25T18:26:08.397Z,46.40
2018-04-25T18:28:34.622Z,46.10
2018-04-25T18:31:00.837Z,46.00
2018-04-25T18:33:27.125Z,45.70
2018-04-25T18:35:53.360Z,45.80
2018-04-25T18:38:19.608Z,45.90
2018-04-25T18:40:45.826Z,45.80
2018-04-25T18:43:12.060Z,46.30
2018-04-25T18:45:38.335Z,47.10
2018-04-25T18:48:04.866Z,46.80
2018-04-25T18:50:31.139Z,46.80
2018-04-25T18:52:57.386Z,46.80
2018-04-25T18:55:24.337Z,46.60
2018-04-25T18:57:51.073Z,46.60
2018-04-25T19:00:17.513Z,46.60
2018-04-25T19:02:43.758Z,46.80
2018-04-25T19:05:10.009Z,47.00
2018-04-25T19:07:36.524Z,46.90
2018-04-25T19:10:02.864Z,46.90
2018-04-25T19:12:29.047Z,46.90
2018-04-25T19:14:55.259Z,47.70
2018-04-25T19:17:21.474Z,47.00
2018-04-25T19:19:47.710Z,47.00
